createdAt,value
2023-03-29T00:01:07.348Z,2.88
2023-03-29T00:03:42.525Z,3.83
2023-03-29T00:06:22.262Z,3.58
2023-03-29T00:08:56.279Z,3.30
2023-03-29T00:11:29.077Z,3.28
2023-03-29T00:16:35.448Z,3.97
2023-03-29T00:19:08.305Z,3.60
2023-03-29T00:21:41.312Z,3.72
2023-03-29T00:24:15.890Z,4.25
2023-03-29T00:26:48.897Z,3.90
2023-03-29T00:29:21.984Z,4.80
2023-03-29T00:31:56.171Z,3.83
2023-03-29T00:34:31.395Z,3.40
2023-03-29T00:37:08.857Z,3.35
2023-03-29T00:39:44.740Z,3.83
2023-03-29T00:42:18.628Z,3.60
2023-03-29T00:44:58.666Z,3.63
2023-03-29T00:47:36.698Z,3.35
2023-03-29T00:50:15.829Z,3.42
2023-03-29T00:52:54.310Z,4.30
2023-03-29T00:55:32.989Z,3.42
2023-03-29T00:58:08.161Z,3.70
2023-03-29T01:00:48.631Z,3.90
2023-03-29T01:03:27.428Z,4.32
2023-03-29T01:06:07.948Z,3.72
2023-03-29T01:08:46.006Z,3.42
2023-03-29T01:11:29.060Z,4.32
2023-03-29T01:14:06.845Z,3.80
2023-03-29T01:16:40.658Z,3.50
2023-03-29T01:19:19.419Z,3.80
2023-03-29T01:22:02.065Z,3.90
2023-03-29T01:24:47.542Z,4.13
2023-03-29T01:27:34.083Z,4.22
2023-03-29T01:30:12.384Z,4.00
2023-03-29T01:32:51.161Z,3.90
2023-03-29T01:35:32.660Z,3.72
2023-03-29T01:38:10.885Z,4.28
2023-03-29T01:40:44.117Z,3.75
2023-03-29T01:43:26.701Z,4.35
2023-03-29T01:46:04.172Z,3.80
2023-03-29T01:48:45.602Z,4.05
2023-03-29T01:51:25.618Z,3.97
2023-03-29T01:54:04.254Z,3.97
2023-03-29T01:56:41.656Z,3.60
2023-03-29T01:59:20.937Z,4.40
2023-03-29T02:01:59.641Z,3.72
2023-03-29T02:04:37.646Z,3.65
2023-03-29T02:07:11.625Z,3.83
2023-03-29T02:09:46.112Z,4.20
2023-03-29T02:12:20.599Z,3.50
2023-03-29T02:14:56.579Z,4.03
2023-03-29T02:17:29.482Z,3.97
2023-03-29T02:20:14.165Z,3.70
2023-03-29T02:22:53.239Z,4.03
2023-03-29T02:25:26.338Z,3.80
2023-03-29T02:27:59.840Z,4.18
2023-03-29T02:30:41.997Z,4.30
2023-03-29T02:33:18.371Z,3.95
2023-03-29T02:35:57.715Z,4.82
2023-03-29T02:38:31.518Z,4.18
2023-03-29T02:41:05.658Z,4.10
2023-03-29T02:43:40.714Z,3.30
2023-03-29T02:46:17.325Z,4.75
2023-03-29T02:48:52.941Z,3.63
2023-03-29T02:54:31.535Z,4.30
2023-03-29T02:57:07.021Z,4.32
2023-03-29T02:59:40.973Z,4.43
2023-03-29T03:02:17.596Z,4.55
2023-03-29T03:04:51.092Z,4.45
2023-03-29T03:07:24.937Z,4.45
2023-03-29T03:09:58.656Z,4.68
2023-03-29T03:12:31.717Z,4.43
2023-03-29T03:15:06.555Z,4.68
2023-03-29T03:17:41.718Z,4.60
2023-03-29T03:20:16.878Z,4.00
2023-03-29T03:22:50.474Z,4.88
2023-03-29T03:25:25.181Z,4.63
2023-03-29T03:27:58.499Z,4.97
2023-03-29T03:33:31.143Z,4.95
2023-03-29T03:36:26.157Z,4.95
2023-03-29T03:38:59.761Z,4.38
2023-03-29T03:41:32.768Z,5.35
2023-03-29T03:44:06.390Z,5.13
2023-03-29T03:46:39.318Z,4.53
2023-03-29T03:49:13.454Z,4.18
2023-03-29T03:51:49.851Z,5.07
2023-03-29T03:54:25.204Z,4.38
2023-03-29T03:57:24.803Z,4.57
2023-03-29T03:59:58.969Z,4.65
2023-03-29T04:02:44.440Z,4.43
2023-03-29T04:07:53.302Z,4.53
2023-03-29T04:10:56.175Z,4.47
2023-03-29T04:13:37.748Z,5.10
2023-03-29T04:16:30.330Z,4.50
2023-03-29T04:19:13.029Z,4.28
2023-03-29T04:21:49.488Z,4.75
2023-03-29T04:24:24.486Z,5.10
2023-03-29T04:27:17.257Z,5.30
2023-03-29T04:29:50.828Z,5.15
2023-03-29T04:32:44.104Z,5.57
2023-03-29T04:37:54.640Z,4.70
2023-03-29T04:40:29.114Z,4.90
2023-03-29T04:43:09.240Z,4.80
2023-03-29T04:45:46.322Z,4.57
2023-03-29T04:48:32.245Z,5.25
2023-03-29T04:51:05.656Z,4.93
2023-03-29T04:53:41.352Z,4.50
2023-03-29T04:56:14.077Z,4.88
2023-03-29T04:59:12.669Z,4.55
2023-03-29T05:01:45.923Z,4.70
2023-03-29T05:04:19.270Z,5.90
2023-03-29T05:07:06.797Z,4.63
2023-03-29T05:12:16.116Z,6.15
2023-03-29T05:14:59.005Z,5.03
2023-03-29T05:17:33.055Z,4.97
2023-03-29T05:20:13.197Z,4.72
2023-03-29T05:22:48.657Z,5.07
2023-03-29T05:25:43.868Z,5.75
2023-03-29T05:28:17.214Z,5.00
2023-03-29T05:31:00.990Z,5.47
2023-03-29T05:33:34.656Z,5.35
2023-03-29T05:36:11.026Z,5.60
2023-03-29T05:38:49.312Z,5.35
2023-03-29T05:41:24.797Z,5.57
2023-03-29T05:43:57.937Z,5.15
2023-03-29T05:46:31.845Z,5.30
2023-03-29T05:49:08.736Z,5.30
2023-03-29T05:52:00.956Z,4.68
2023-03-29T05:54:35.498Z,5.30
2023-03-29T05:57:10.241Z,5.50
2023-03-29T05:59:43.331Z,5.53
2023-03-29T06:02:18.719Z,5.80
2023-03-29T06:04:57.699Z,5.70
2023-03-29T06:07:32.063Z,5.72
2023-03-29T06:10:33.862Z,5.18
2023-03-29T06:13:22.339Z,6.10
2023-03-29T06:15:55.210Z,6.07
2023-03-29T06:18:31.081Z,5.95
2023-03-29T06:21:04.040Z,6.00
2023-03-29T06:23:37.900Z,6.30
2023-03-29T06:26:12.819Z,6.72
2023-03-29T06:28:49.813Z,6.15
2023-03-29T06:31:24.755Z,6.15
2023-03-29T06:33:59.415Z,6.88
2023-03-29T06:36:56.404Z,7.18
2023-03-29T06:42:26.886Z,6.68
2023-03-29T06:45:17.948Z,7.40
2023-03-29T06:47:54.521Z,7.95
2023-03-29T06:50:27.388Z,7.63
2023-03-29T06:53:13.360Z,7.85
2023-03-29T06:55:47.780Z,7.22
2023-03-29T06:58:39.146Z,7.95
2023-03-29T07:01:27.049Z,7.90
2023-03-29T07:04:08.190Z,7.78
2023-03-29T07:07:02.507Z,7.32
2023-03-29T07:09:41.409Z,8.13
2023-03-29T07:12:40.909Z,8.15
2023-03-29T07:15:14.266Z,8.82
2023-03-29T07:18:08.053Z,8.50
2023-03-29T07:20:42.309Z,8.32
2023-03-29T07:23:15.401Z,9.00
2023-03-29T07:25:48.173Z,8.20
2023-03-29T07:28:21.392Z,10.25
2023-03-29T07:33:30.454Z,10.48
2023-03-29T07:36:09.006Z,10.90
2023-03-29T07:38:42.081Z,10.57
2023-03-29T07:41:20.359Z,10.63
2023-03-29T07:44:04.939Z,10.88
2023-03-29T07:46:38.067Z,9.55
2023-03-29T07:49:12.213Z,10.95
2023-03-29T07:51:45.538Z,10.25
2023-03-29T07:54:19.803Z,11.32
2023-03-29T07:57:12.844Z,11.15
2023-03-29T07:59:48.800Z,12.40
2023-03-29T08:02:29.110Z,10.75
2023-03-29T08:05:10.014Z,11.50
2023-03-29T08:07:55.282Z,11.45
2023-03-29T08:10:39.446Z,11.57
2023-03-29T08:13:33.942Z,12.80
2023-03-29T08:16:30.020Z,12.98
2023-03-29T08:19:22.756Z,13.15
2023-03-29T08:22:07.036Z,12.63
2023-03-29T08:25:00.220Z,12.07
2023-03-29T08:27:39.585Z,13.00
2023-03-29T08:30:14.865Z,13.50
2023-03-29T08:32:50.465Z,12.35
2023-03-29T08:35:25.729Z,13.85
2023-03-29T08:38:21.757Z,13.95
2023-03-29T08:40:56.640Z,15.13
2023-03-29T08:44:02.023Z,13.00
2023-03-29T08:46:54.803Z,11.57
2023-03-29T08:49:42.938Z,10.32
2023-03-29T08:52:23.921Z,11.15
2023-03-29T08:55:01.568Z,10.52
2023-03-29T08:57:40.821Z,10.95
2023-03-29T09:00:23.032Z,10.82
2023-03-29T09:03:00.152Z,10.80
2023-03-29T09:05:38.924Z,10.25
2023-03-29T09:08:23.903Z,12.15
2023-03-29T09:11:29.262Z,10.20
2023-03-29T09:14:13.762Z,10.70
2023-03-29T09:16:56.676Z,12.07
2023-03-29T09:19:38.704Z,10.57
2023-03-29T09:22:20.609Z,9.73
2023-03-29T09:25:03.939Z,9.93
2023-03-29T09:27:45.965Z,10.57
2023-03-29T09:30:33.275Z,10.10
2023-03-29T09:33:14.699Z,10.73
2023-03-29T09:36:11.851Z,10.95
2023-03-29T09:38:49.742Z,9.73
2023-03-29T09:41:29.530Z,8.38
2023-03-29T09:44:12.711Z,9.18
2023-03-29T09:46:57.343Z,9.32
2023-03-29T09:49:42.203Z,9.90
2023-03-29T09:52:17.999Z,9.10
2023-03-29T09:54:59.862Z,9.65
2023-03-29T09:57:51.113Z,9.25
2023-03-29T10:00:26.683Z,9.93
2023-03-29T10:03:00.543Z,9.43
2023-03-29T10:05:48.196Z,9.52
2023-03-29T10:08:28.338Z,10.63
2023-03-29T10:11:09.609Z,9.65
2023-03-29T10:13:47.310Z,10.20
2023-03-29T10:16:23.672Z,10.38
2023-03-29T10:18:56.497Z,10.23
2023-03-29T10:21:30.437Z,10.40
2023-03-29T10:24:03.162Z,11.88
2023-03-29T10:26:39.042Z,11.63
2023-03-29T10:29:13.820Z,11.68
2023-03-29T10:31:50.186Z,11.68
2023-03-29T10:34:27.956Z,12.88
2023-03-29T10:37:02.309Z,11.93
2023-03-29T10:39:35.730Z,12.50
2023-03-29T10:42:14.599Z,12.77
2023-03-29T10:44:55.209Z,11.75
2023-03-29T10:47:34.392Z,12.18
2023-03-29T10:50:12.777Z,12.48
2023-03-29T10:52:45.566Z,12.70
2023-03-29T10:55:19.496Z,12.60
2023-03-29T10:58:04.726Z,12.20
2023-03-29T11:00:44.752Z,12.15
2023-03-29T11:03:28.320Z,13.95
2023-03-29T11:06:14.123Z,12.98
2023-03-29T11:08:55.413Z,12.63
2023-03-29T11:11:45.384Z,11.82
2023-03-29T11:14:28.983Z,13.15
2023-03-29T11:17:18.887Z,13.15
2023-03-29T11:20:10.574Z,12.27
2023-03-29T11:22:50.319Z,11.48
2023-03-29T11:25:34.987Z,10.20
2023-03-29T11:28:15.940Z,11.43
2023-03-29T11:30:59.394Z,11.48
2023-03-29T11:33:41.751Z,10.32
2023-03-29T11:36:21.997Z,11.07
2023-03-29T11:39:04.593Z,10.82
2023-03-29T11:41:41.071Z,10.82
2023-03-29T11:44:17.674Z,10.50
2023-03-29T11:46:57.325Z,9.30
2023-03-29T11:49:34.891Z,9.80
2023-03-29T11:52:12.695Z,9.20
2023-03-29T11:54:51.579Z,9.63
2023-03-29T11:57:28.935Z,9.38
2023-03-29T12:00:06.176Z,10.27
2023-03-29T12:02:49.248Z,9.93
2023-03-29T12:05:25.824Z,11.55
2023-03-29T12:08:06.194Z,11.60
2023-03-29T12:10:43.804Z,37.55
2023-03-29T12:13:22.476Z,15.52
2023-03-29T12:16:00.934Z,13.07
2023-03-29T12:18:39.421Z,13.85
2023-03-29T12:21:15.364Z,13.40
2023-03-29T12:23:51.955Z,12.77
2023-03-29T12:26:41.301Z,12.43
2023-03-29T12:29:35.726Z,11.07
2023-03-29T12:32:29.389Z,9.90
2023-03-29T12:35:23.750Z,10.98
2023-03-29T12:38:24.557Z,9.23
2023-03-29T12:41:20.321Z,8.65
2023-03-29T12:44:06.858Z,8.77
2023-03-29T12:46:55.656Z,8.98
2023-03-29T12:49:32.505Z,7.22
2023-03-29T12:52:26.973Z,8.25
2023-03-29T12:55:01.719Z,7.32
2023-03-29T12:57:43.341Z,7.00
2023-03-29T13:00:23.836Z,7.30
2023-03-29T13:03:06.936Z,7.40
2023-03-29T13:05:39.673Z,6.90
2023-03-29T13:08:23.291Z,7.18
2023-03-29T13:10:57.808Z,6.85
2023-03-29T13:13:36.215Z,7.00
2023-03-29T13:16:15.802Z,7.53
2023-03-29T13:18:58.836Z,7.38
2023-03-29T13:21:41.850Z,6.47
2023-03-29T13:24:31.681Z,6.60
2023-03-29T13:27:11.272Z,7.10
2023-03-29T13:30:07.243Z,7.82
2023-03-29T13:32:52.497Z,8.82
2023-03-29T13:35:37.617Z,9.38
2023-03-29T13:38:20.258Z,10.52
2023-03-29T13:41:01.494Z,11.00
2023-03-29T13:43:37.694Z,11.18
2023-03-29T13:46:40.761Z,10.95
2023-03-29T13:49:19.801Z,12.60
2023-03-29T13:52:07.104Z,12.43
2023-03-29T13:54:44.359Z,12.60
2023-03-29T13:57:24.172Z,12.38
2023-03-29T14:00:00.651Z,11.30
2023-03-29T14:02:43.016Z,10.98
2023-03-29T14:05:18.839Z,13.40
2023-03-29T14:07:53.565Z,10.73
2023-03-29T14:10:32.194Z,11.60
2023-03-29T14:13:05.019Z,11.68
2023-03-29T14:15:44.257Z,10.95
2023-03-29T14:18:22.172Z,11.50
2023-03-29T14:20:56.776Z,10.65
2023-03-29T14:23:31.412Z,11.30
2023-03-29T14:26:10.647Z,10.63
2023-03-29T14:28:46.878Z,10.35
2023-03-29T14:31:20.918Z,10.70
2023-03-29T14:33:55.674Z,10.98
2023-03-29T14:36:29.960Z,9.88
2023-03-29T14:39:05.957Z,10.88
2023-03-29T14:41:40.286Z,9.90
2023-03-29T14:44:14.823Z,11.02
2023-03-29T14:46:48.081Z,11.30
2023-03-29T14:49:24.504Z,10.60
2023-03-29T14:51:58.173Z,10.80
2023-03-29T14:54:33.339Z,10.48
2023-03-29T14:57:08.268Z,10.32
2023-03-29T14:59:43.823Z,10.63
2023-03-29T15:02:28.213Z,10.32
2023-03-29T15:05:04.734Z,11.32
2023-03-29T15:07:39.958Z,11.32
2023-03-29T15:10:19.824Z,10.43
2023-03-29T15:12:52.900Z,10.30
2023-03-29T15:15:27.343Z,9.52
2023-03-29T15:18:00.312Z,9.00
2023-03-29T15:20:38.521Z,9.88
2023-03-29T15:23:22.554Z,8.75
2023-03-29T15:25:58.361Z,8.88
2023-03-29T15:28:32.696Z,8.02
2023-03-29T15:31:12.562Z,8.38
2023-03-29T15:33:45.594Z,7.60
2023-03-29T15:36:19.689Z,7.35
2023-03-29T15:38:52.565Z,7.35
2023-03-29T15:43:58.904Z,7.65
2023-03-29T15:46:32.887Z,6.72
2023-03-29T15:49:06.063Z,6.65
2023-03-29T15:51:40.731Z,7.05
2023-03-29T15:54:13.569Z,5.20
2023-03-29T15:56:50.671Z,5.75
2023-03-29T15:59:23.879Z,5.07
2023-03-29T16:01:58.110Z,6.15
2023-03-29T16:04:30.855Z,5.82
2023-03-29T16:07:08.623Z,4.68
2023-03-29T16:09:41.371Z,4.60
2023-03-29T16:12:15.140Z,4.45
2023-03-29T16:14:47.865Z,4.75
2023-03-29T16:17:20.726Z,4.53
2023-03-29T16:19:53.434Z,4.60
2023-03-29T16:22:29.348Z,5.40
2023-03-29T16:25:05.039Z,5.10
2023-03-29T16:27:37.965Z,4.72
2023-03-29T16:30:12.685Z,4.97
2023-03-29T16:32:45.778Z,5.20
2023-03-29T16:35:25.651Z,4.70
2023-03-29T16:38:00.185Z,3.80
2023-03-29T16:40:34.312Z,5.03
2023-03-29T16:43:07.647Z,4.97
2023-03-29T16:45:43.549Z,5.10
2023-03-29T16:48:18.425Z,5.40
2023-03-29T16:50:51.503Z,5.70
2023-03-29T16:53:27.028Z,4.97
2023-03-29T16:55:59.860Z,4.85
2023-03-29T16:58:32.934Z,5.18
2023-03-29T17:01:10.785Z,5.00
2023-03-29T17:03:44.642Z,5.32
2023-03-29T17:06:17.316Z,4.82
2023-03-29T17:08:51.660Z,5.63
2023-03-29T17:11:24.538Z,5.55
2023-03-29T17:13:57.433Z,5.10
2023-03-29T17:16:30.547Z,5.38
2023-03-29T17:19:03.317Z,5.10
2023-03-29T17:21:35.998Z,4.93
2023-03-29T17:24:10.932Z,6.35
2023-03-29T17:26:45.789Z,5.32
2023-03-29T17:29:19.002Z,5.22
2023-03-29T17:34:24.827Z,5.10
2023-03-29T17:37:00.141Z,5.65
2023-03-29T17:39:37.533Z,5.97
2023-03-29T17:42:10.401Z,5.55
2023-03-29T17:44:43.318Z,5.97
2023-03-29T17:49:49.249Z,5.90
2023-03-29T17:52:22.151Z,6.20
2023-03-29T17:57:31.864Z,7.20
2023-03-29T18:02:38.768Z,6.15
2023-03-29T18:05:11.864Z,6.55
2023-03-29T18:10:19.016Z,5.43
2023-03-29T18:12:51.776Z,6.13
2023-03-29T18:15:24.607Z,5.95
2023-03-29T18:17:57.735Z,6.60
2023-03-29T18:20:30.582Z,6.57
2023-03-29T18:23:03.416Z,6.07
2023-03-29T18:28:11.738Z,6.50
2023-03-29T18:33:17.302Z,6.60
2023-03-29T18:38:24.277Z,7.63
2023-03-29T18:40:58.603Z,7.75
2023-03-29T18:43:33.467Z,7.85
2023-03-29T18:46:06.739Z,6.75
2023-03-29T18:48:41.127Z,9.15
2023-03-29T18:51:14.907Z,8.15
2023-03-29T18:53:47.782Z,6.82
2023-03-29T18:58:56.983Z,7.15
2023-03-29T19:01:29.801Z,7.90
2023-03-29T19:04:02.677Z,7.35
2023-03-29T19:06:35.841Z,7.07
2023-03-29T19:09:08.670Z,8.05
2023-03-29T19:11:43.542Z,8.65
2023-03-29T19:14:17.469Z,7.88
2023-03-29T19:16:51.407Z,7.50
2023-03-29T19:19:26.292Z,7.70
2023-03-29T19:22:00.572Z,7.13
2023-03-29T19:24:33.696Z,7.13
2023-03-29T19:29:43.483Z,7.57
2023-03-29T19:32:16.335Z,9.20
2023-03-29T19:34:49.266Z,8.32
2023-03-29T19:39:57.078Z,6.63
2023-03-29T19:42:31.284Z,6.80
2023-03-29T19:45:05.222Z,7.35
2023-03-29T19:47:38.162Z,7.18
2023-03-29T19:52:45.170Z,6.75
2023-03-29T19:55:18.767Z,6.55
2023-03-29T19:57:52.926Z,7.28
2023-03-29T20:00:25.797Z,6.60
2023-03-29T20:05:31.476Z,6.18
2023-03-29T20:08:04.220Z,6.82
2023-03-29T20:10:37.373Z,6.82
2023-03-29T20:13:12.084Z,6.30
2023-03-29T20:15:47.202Z,6.03
2023-03-29T20:18:20.654Z,6.00
2023-03-29T20:20:53.825Z,6.43
2023-03-29T20:23:30.161Z,5.47
2023-03-29T20:26:07.518Z,5.68
2023-03-29T20:28:42.049Z,5.70
2023-03-29T20:31:14.777Z,5.18
2023-03-29T20:33:47.631Z,6.32
2023-03-29T20:36:22.923Z,5.38
2023-03-29T20:38:56.210Z,5.82
2023-03-29T20:41:29.222Z,5.55
2023-03-29T20:46:38.098Z,6.03
2023-03-29T20:49:10.890Z,5.18
2023-03-29T20:51:43.780Z,5.35
2023-03-29T20:54:18.228Z,5.35
2023-03-29T20:56:51.097Z,5.97
2023-03-29T21:01:58.351Z,5.25
2023-03-29T21:04:31.321Z,4.63
2023-03-29T21:07:05.100Z,5.88
2023-03-29T21:09:37.998Z,5.22
2023-03-29T21:12:11.304Z,4.93
2023-03-29T21:14:47.335Z,4.18
2023-03-29T21:17:20.024Z,5.55
2023-03-29T21:19:53.189Z,4.97
2023-03-29T21:22:25.925Z,5.30
2023-03-29T21:24:58.637Z,4.32
2023-03-29T21:27:31.285Z,5.30
2023-03-29T21:30:07.894Z,5.18
2023-03-29T21:32:40.986Z,4.28
2023-03-29T21:35:14.054Z,4.25
2023-03-29T21:40:19.439Z,4.63
2023-03-29T21:42:52.133Z,4.43
2023-03-29T21:45:26.294Z,4.38
2023-03-29T21:47:59.396Z,4.47
2023-03-29T21:50:33.884Z,4.50
2023-03-29T21:53:06.793Z,3.85
2023-03-29T21:55:39.519Z,4.72
2023-03-29T21:58:12.340Z,4.63
2023-03-29T22:00:47.222Z,4.35
2023-03-29T22:03:22.916Z,4.70
2023-03-29T22:05:57.223Z,4.90
2023-03-29T22:08:30.699Z,4.82
2023-03-29T22:11:08.155Z,5.18
2023-03-29T22:13:42.048Z,4.20
2023-03-29T22:16:18.361Z,4.30
2023-03-29T22:18:52.509Z,4.50
2023-03-29T22:21:26.950Z,4.75
2023-03-29T22:24:01.565Z,4.38
2023-03-29T22:26:34.325Z,4.40
2023-03-29T22:29:07.157Z,4.43
2023-03-29T22:34:14.021Z,4.57
2023-03-29T22:36:46.709Z,4.90
2023-03-29T22:39:19.565Z,5.15
2023-03-29T22:44:24.813Z,4.47
2023-03-29T22:49:31.681Z,4.40
2023-03-29T22:52:04.829Z,4.50
2023-03-29T22:54:37.600Z,4.60
2023-03-29T22:57:10.410Z,5.18
2023-03-29T22:59:43.263Z,4.63
2023-03-29T23:02:17.368Z,4.68
2023-03-29T23:04:50.165Z,4.80
2023-03-29T23:09:55.716Z,4.38
2023-03-29T23:12:28.393Z,3.55
2023-03-29T23:15:01.512Z,4.38
2023-03-29T23:17:35.736Z,4.50
2023-03-29T23:20:11.163Z,4.22
2023-03-29T23:22:44.060Z,3.72
2023-03-29T23:25:16.880Z,3.83
2023-03-29T23:27:49.559Z,3.78
2023-03-29T23:30:22.589Z,3.25
2023-03-29T23:35:32.108Z,2.95
2023-03-29T23:38:05.513Z,2.65
2023-03-29T23:40:38.245Z,3.42
2023-03-29T23:43:11.099Z,3.30
2023-03-29T23:45:43.798Z,4.38
2023-03-29T23:48:20.223Z,3.00
2023-03-29T23:50:53.217Z,2.92
2023-03-29T23:56:05.401Z,2.65
2023-03-29T23:58:39.167Z,3.40
